Terminal Aerodrome Forecast
Issued by NWS Grand Forks, ND

Home | Current Version | Previous Version | Text Only | Print | Product List | Glossary On
Versions: 1 2 3 4 5 6 7 8 9 10 11 12 13 14 15 16 17 18 19 20
000
FTUS43 KFGF 222000 AAA
TAFFAR
TAF AMD
KFAR 222026Z 2220/2318 36007KT P6SM BKN015
     FM230300 36008KT P6SM BKN012
     FM230900 02006KT P6SM OVC005=

USA.gov is the U.S. government's official web portal to all federal, state and local government web resources and services.